Time;durP1;ratioP1;P1;durP2;ratioP2;P2;SDS_P1;SDS_P2;PMS_P1;PMS_P2;Temp;Humidity;BMP_temperature;BMP_pressure;BME280_temperature;BME280_humidity;BME280_pressure;Samples;Min_cycle;Max_cycle;Signal;HPM_P1;HPM_P2
2022/03/31 00:02:11;;;;;;;13.70;7.03;;;21.30;46.40;;;;;;5054857;28;20095;-84
2022/03/31 00:04:39;;;;;;;20.05;7.68;;;21.10;46.60;;;;;;5054813;28;20028;-83
2022/03/31 00:07:05;;;;;;;18.13;6.88;;;21.10;47.00;;;;;;5056297;28;20111;-84
2022/03/31 00:09:31;;;;;;;18.40;7.43;;;20.80;47.70;;;;;;5074169;28;20031;-84
2022/03/31 00:12:00;;;;;;;16.17;7.10;;;20.80;47.30;;;;;;5069879;28;20035;-84
2022/03/31 00:14:27;;;;;;;16.55;7.28;;;21.00;47.10;;;;;;5057628;28;20055;-84
2022/03/31 00:16:53;;;;;;;16.92;7.00;;;20.60;48.70;;;;;;5055577;28;20037;-84
2022/03/31 00:19:19;;;;;;;16.58;7.50;;;20.10;50.10;;;;;;5068672;28;20062;-84
2022/03/31 00:21:45;;;;;;;25.90;11.02;;;20.10;50.40;;;;;;5064243;28;20036;-83
2022/03/31 00:24:10;;;;;;;20.83;8.13;;;20.10;50.50;;;;;;5067368;28;20050;-82
2022/03/31 00:26:38;;;;;;;16.70;7.75;;;19.60;50.70;;;;;;5057664;28;20052;-81
2022/03/31 00:29:05;;;;;;;18.02;7.97;;;19.20;53.30;;;;;;5055289;28;20029;-83
2022/03/31 00:31:30;;;;;;;19.33;8.85;;;19.50;53.00;;;;;;5066440;28;20033;-81
2022/03/31 00:33:56;;;;;;;19.33;8.18;;;19.70;52.60;;;;;;5058620;28;20074;-84
2022/03/31 00:36:22;;;;;;;18.58;7.88;;;19.70;52.50;;;;;;5076319;28;20120;-84
2022/03/31 00:41:37;;;;;;;17.98;7.28;;;20.10;51.20;;;;;;5089080;28;20070;-84
2022/03/31 00:44:04;;;;;;;22.33;7.20;;;20.20;49.60;;;;;;5078001;28;20494;-81
2022/03/31 00:46:31;;;;;;;18.77;7.47;;;19.60;52.10;;;;;;5095568;28;20042;-84
2022/03/31 00:48:57;;;;;;;14.27;7.43;;;19.60;52.20;;;;;;5089811;28;20020;-85
2022/03/31 00:51:22;;;;;;;19.02;7.40;;;19.70;52.30;;;;;;5066496;28;20032;-84
2022/03/31 00:53:48;;;;;;;21.27;8.05;;;19.70;52.90;;;;;;5057657;28;20020;-84
2022/03/31 00:56:15;;;;;;;18.08;7.65;;;19.60;52.70;;;;;;5057172;28;20037;-83
2022/03/31 00:58:42;;;;;;;17.85;7.55;;;19.90;52.40;;;;;;5071972;28;20486;-84
2022/03/31 01:01:08;;;;;;;18.45;7.07;;;20.20;52.20;;;;;;5057078;28;20127;-84
2022/03/31 01:03:35;;;;;;;16.77;7.13;;;20.20;52.40;;;;;;5068120;28;20363;-84
2022/03/31 01:06:01;;;;;;;16.48;7.25;;;20.20;51.90;;;;;;5061412;28;20032;-84
2022/03/31 01:08:27;;;;;;;16.38;7.25;;;20.10;52.60;;;;;;5057917;28;20032;-84
2022/03/31 01:10:53;;;;;;;19.85;8.75;;;20.10;52.90;;;;;;5080590;28;20530;-84
2022/03/31 01:13:19;;;;;;;14.98;7.65;;;20.10;52.80;;;;;;5090115;28;20028;-84
2022/03/31 01:15:44;;;;;;;16.27;7.47;;;20.20;52.10;;;;;;5074925;28;20021;-85
2022/03/31 01:18:10;;;;;;;17.58;7.30;;;19.90;52.30;;;;;;5090476;28;20363;-84
2022/03/31 01:20:36;;;;;;;22.17;8.23;;;19.60;53.10;;;;;;5075240;28;20227;-84
2022/03/31 01:23:04;;;;;;;21.10;8.27;;;19.60;52.80;;;;;;5081272;28;20428;-84
2022/03/31 01:25:30;;;;;;;16.95;8.15;;;19.50;53.10;;;;;;5083122;28;20027;-84
2022/03/31 01:27:56;;;;;;;19.27;7.63;;;19.70;52.60;;;;;;5061202;28;20028;-81
2022/03/31 01:30:23;;;;;;;12.60;7.40;;;19.50;52.10;;;;;;5075878;28;20027;-81
2022/03/31 01:32:50;;;;;;;19.08;8.25;;;19.30;53.30;;;;;;5094739;28;20035;-82
2022/03/31 01:35:16;;;;;;;17.80;8.13;;;19.10;53.00;;;;;;5094863;28;20012;-82
2022/03/31 01:37:43;;;;;;;18.25;7.80;;;19.20;53.90;;;;;;5072767;28;20048;-82
2022/03/31 01:40:09;;;;;;;18.15;8.32;;;19.50;52.60;;;;;;5056394;28;20466;-82
2022/03/31 01:42:36;;;;;;;17.70;8.65;;;19.50;51.90;;;;;;5055441;28;20028;-83
2022/03/31 01:45:03;;;;;;;17.90;8.75;;;19.50;52.00;;;;;;5074164;28;20020;-84
2022/03/31 01:47:28;;;;;;;19.88;8.63;;;19.60;51.50;;;;;;5056850;28;20028;-84
2022/03/31 01:49:54;;;;;;;22.27;9.52;;;19.60;51.90;;;;;;5071156;28;20020;-84
2022/03/31 01:52:22;;;;;;;21.70;8.73;;;19.70;52.10;;;;;;5070701;28;20035;-84
2022/03/31 01:54:48;;;;;;;20.83;8.77;;;19.90;51.30;;;;;;5076350;28;20028;-84
2022/03/31 01:57:14;;;;;;;23.83;9.32;;;19.70;51.40;;;;;;5075272;28;20435;-83
2022/03/31 01:59:41;;;;;;;20.25;8.93;;;19.60;51.80;;;;;;5092227;28;20556;-84
2022/03/31 02:02:08;;;;;;;22.27;9.02;;;19.80;51.70;;;;;;5070250;28;20032;-84
2022/03/31 02:04:33;;;;;;;18.67;7.97;;;20.10;51.10;;;;;;5073842;28;20475;-84
2022/03/31 02:06:59;;;;;;;24.23;9.70;;;20.10;51.00;;;;;;5062702;28;20021;-84
2022/03/31 02:09:25;;;;;;;22.98;8.90;;;19.90;51.80;;;;;;5065623;28;20348;-85
2022/03/31 02:11:52;;;;;;;16.63;8.68;;;19.70;52.00;;;;;;5061859;28;20390;-84
2022/03/31 02:14:19;;;;;;;20.05;8.73;;;19.70;52.20;;;;;;5063087;28;20033;-84
2022/03/31 02:16:46;;;;;;;17.55;8.70;;;19.80;52.10;;;;;;5055926;28;20028;-84
2022/03/31 02:19:12;;;;;;;16.33;8.77;;;20.00;51.80;;;;;;5070493;28;20118;-84
2022/03/31 02:21:38;;;;;;;16.98;8.88;;;19.90;51.40;;;;;;5066544;28;20058;-82
2022/03/31 02:24:04;;;;;;;20.17;9.02;;;19.80;51.30;;;;;;5080919;28;20052;-83
2022/03/31 02:26:30;;;;;;;17.52;8.40;;;19.50;52.30;;;;;;5075857;28;20024;-84
2022/03/31 02:28:55;;;;;;;20.73;9.55;;;19.10;52.70;;;;;;5079153;28;20029;-82
2022/03/31 02:31:21;;;;;;;19.08;8.65;;;19.40;52.50;;;;;;5055560;28;20035;-83
2022/03/31 02:33:47;;;;;;;24.38;8.88;;;19.50;51.80;;;;;;5058883;28;20032;-83
2022/03/31 02:36:12;;;;;;;17.40;9.27;;;19.50;51.80;;;;;;5086182;28;20067;-84
2022/03/31 02:38:38;;;;;;;19.58;8.68;;;19.80;51.60;;;;;;5064231;28;20083;-85
2022/03/31 02:41:05;;;;;;;17.63;9.10;;;19.80;51.30;;;;;;5055720;28;20035;-84
2022/03/31 02:43:31;;;;;;;23.23;9.00;;;20.00;51.20;;;;;;5061058;28;20098;-84
2022/03/31 02:45:58;;;;;;;16.20;9.32;;;20.10;50.70;;;;;;5057547;28;20029;-84
2022/03/31 02:48:23;;;;;;;23.55;9.00;;;20.20;50.70;;;;;;5093747;28;20031;-84
2022/03/31 02:50:49;;;;;;;23.67;10.25;;;20.40;50.50;;;;;;5093869;28;20048;-83
2022/03/31 02:56:00;;;;;;;19.45;9.75;;;20.20;50.60;;;;;;5097751;28;20105;-85
2022/03/31 02:58:26;;;;;;;22.38;10.40;;;20.10;50.70;;;;;;5079480;28;20394;-84
2022/03/31 03:00:51;;;;;;;18.60;9.23;;;20.20;51.00;;;;;;5097629;28;20473;-83
2022/03/31 03:03:17;;;;;;;19.35;9.50;;;20.00;50.60;;;;;;5078370;28;20035;-83
2022/03/31 03:05:45;;;;;;;21.63;10.07;;;20.00;50.70;;;;;;5081500;28;20024;-84
2022/03/31 03:08:11;;;;;;;21.83;9.73;;;19.80;51.00;;;;;;5079138;28;20024;-85
2022/03/31 03:10:37;;;;;;;18.85;9.73;;;19.50;51.60;;;;;;5066739;28;20040;-84
2022/03/31 03:13:03;;;;;;;22.27;9.77;;;19.50;51.90;;;;;;5089900;28;20463;-84
2022/03/31 03:15:29;;;;;;;23.35;11.02;;;19.40;52.00;;;;;;5097305;28;20024;-84
2022/03/31 03:17:55;;;;;;;18.88;9.82;;;19.50;52.20;;;;;;5096809;28;20039;-85
2022/03/31 03:20:24;;;;;;;23.85;10.20;;;19.50;51.90;;;;;;5079466;28;20442;-84
2022/03/31 03:23:08;;;;;;;20.85;9.93;;;19.60;51.90;;;;;;5076293;28;20047;-84
2022/03/31 03:25:34;;;;;;;19.20;10.43;;;20.00;51.20;;;;;;5066527;28;20484;-84
2022/03/31 03:28:00;;;;;;;19.52;10.32;;;20.00;50.90;;;;;;5078874;28;20539;-84
2022/03/31 03:30:25;;;;;;;21.75;10.35;;;20.20;50.80;;;;;;5078879;28;20024;-84
2022/03/31 03:32:51;;;;;;;24.00;10.55;;;20.20;50.40;;;;;;5072624;28;20021;-84
2022/03/31 03:35:17;;;;;;;18.10;9.30;;;20.00;50.90;;;;;;5096699;28;20505;-85
2022/03/31 03:37:44;;;;;;;19.05;9.88;;;20.00;51.00;;;;;;5075549;28;20083;-84
2022/03/31 03:40:13;;;;;;;23.80;11.18;;;20.20;50.60;;;;;;5062387;28;20035;-83
2022/03/31 03:42:39;;;;;;;22.27;10.53;;;20.30;50.20;;;;;;5058251;28;20028;-83
2022/03/31 03:45:11;;;;;;;23.20;10.65;;;20.20;50.60;;;;;;5067250;28;20315;-83
2022/03/31 03:47:37;;;;;;;23.67;10.77;;;20.00;50.80;;;;;;5090796;28;20024;-83
2022/03/31 03:50:03;;;;;;;22.23;11.00;;;20.10;51.00;;;;;;5078175;28;20028;-83
2022/03/31 03:52:30;;;;;;;24.05;11.85;;;19.90;51.10;;;;;;5075056;28;20031;-83
2022/03/31 03:54:56;;;;;;;23.73;10.95;;;19.70;51.30;;;;;;5057878;28;20381;-85
2022/03/31 03:57:24;;;;;;;23.17;10.80;;;19.90;51.20;;;;;;5076063;28;20481;-83
2022/03/31 03:59:50;;;;;;;21.13;10.48;;;19.80;51.00;;;;;;5062237;28;20471;-82
2022/03/31 04:02:15;;;;;;;19.38;10.95;;;19.80;51.20;;;;;;5058069;28;20033;-85
2022/03/31 04:04:41;;;;;;;21.70;11.07;;;20.00;51.00;;;;;;5074916;28;20024;-82
2022/03/31 04:07:07;;;;;;;17.45;10.25;;;20.00;50.80;;;;;;5075590;28;20032;-81
2022/03/31 04:09:33;;;;;;;25.13;11.50;;;20.00;50.80;;;;;;5066406;28;20020;-84
2022/03/31 04:11:58;;;;;;;20.63;11.48;;;20.10;50.70;;;;;;5079685;28;20475;-83
2022/03/31 04:14:24;;;;;;;18.33;10.93;;;20.00;50.60;;;;;;5070807;28;20082;-84
2022/03/31 04:16:50;;;;;;;21.50;10.77;;;20.10;50.60;;;;;;5066096;28;20090;-84
2022/03/31 04:19:16;;;;;;;22.08;12.38;;;20.20;50.20;;;;;;5077970;28;20106;-83
2022/03/31 04:21:42;;;;;;;18.58;11.85;;;20.20;50.20;;;;;;5077900;28;20189;-83
2022/03/31 04:24:08;;;;;;;25.58;11.68;;;20.20;50.30;;;;;;5078050;28;20418;-85
2022/03/31 04:26:34;;;;;;;24.25;11.88;;;20.10;50.30;;;;;;5077993;28;20576;-86
2022/03/31 04:29:03;;;;;;;19.98;11.65;;;20.10;50.40;;;;;;5077731;28;20050;-83
2022/03/31 04:31:29;;;;;;;22.40;11.15;;;19.90;50.80;;;;;;5067265;28;20068;-83
2022/03/31 04:33:55;;;;;;;21.85;12.05;;;19.80;51.20;;;;;;5064977;28;20020;-83
2022/03/31 04:36:20;;;;;;;22.38;11.60;;;19.90;51.10;;;;;;5078785;28;20045;-80
2022/03/31 04:38:46;;;;;;;21.98;11.70;;;20.10;50.60;;;;;;5057034;28;20074;-81
2022/03/31 04:41:12;;;;;;;25.50;11.82;;;20.10;51.30;;;;;;5075214;28;20029;-83
2022/03/31 04:43:38;;;;;;;19.50;11.85;;;20.20;50.50;;;;;;5057418;28;20046;-83
2022/03/31 04:46:04;;;;;;;21.13;10.73;;;20.00;50.60;;;;;;5057651;28;20075;-82
2022/03/31 04:48:32;;;;;;;25.42;12.68;;;19.80;50.70;;;;;;5058326;28;20024;-83
2022/03/31 04:50:58;;;;;;;22.67;12.65;;;19.60;51.60;;;;;;5056942;28;20098;-82
2022/03/31 04:53:24;;;;;;;24.45;12.40;;;19.80;51.10;;;;;;5088155;28;20107;-82
2022/03/31 04:55:50;;;;;;;19.75;11.90;;;20.00;51.20;;;;;;5076338;28;20060;-83
2022/03/31 04:58:15;;;;;;;20.63;11.00;;;20.00;50.90;;;;;;5095114;28;20035;-83
2022/03/31 05:00:41;;;;;;;20.20;11.52;;;20.00;50.90;;;;;;5094917;28;20463;-82
2022/03/31 05:03:07;;;;;;;22.05;11.30;;;20.00;50.80;;;;;;5076660;28;20032;-84
2022/03/31 05:05:32;;;;;;;25.00;12.35;;;20.10;50.40;;;;;;5094785;28;20023;-83
2022/03/31 05:07:58;;;;;;;27.95;11.50;;;20.20;50.20;;;;;;5094690;28;20032;-85
2022/03/31 05:10:24;;;;;;;22.95;12.35;;;20.10;50.20;;;;;;5077323;28;20057;-86
2022/03/31 05:12:49;;;;;;;22.98;12.77;;;19.90;50.50;;;;;;5094972;28;20028;-84
2022/03/31 05:15:16;;;;;;;24.25;14.70;;;19.90;50.60;;;;;;4764955;28;10000863;-84
2022/03/31 05:17:42;;;;;;;27.65;15.27;;;20.10;50.40;;;;;;5055504;28;20255;-85
2022/03/31 05:20:12;;;;;;;23.25;12.57;;;20.00;50.70;;;;;;5056014;28;20033;-84
2022/03/31 05:22:40;;;;;;;19.65;12.48;;;20.00;50.60;;;;;;5056529;28;20028;-84
2022/03/31 05:25:07;;;;;;;21.92;11.88;;;20.00;50.60;;;;;;5056562;28;20112;-83
2022/03/31 05:27:34;;;;;;;23.55;11.52;;;19.80;51.20;;;;;;5055896;28;20066;-84
2022/03/31 05:30:00;;;;;;;24.05;11.82;;;19.90;51.40;;;;;;5073336;28;20051;-83
2022/03/31 05:32:26;;;;;;;24.48;11.60;;;19.90;50.90;;;;;;5054672;28;20081;-83
2022/03/31 05:34:52;;;;;;;21.50;11.85;;;20.10;50.70;;;;;;5057099;28;20033;-83
2022/03/31 05:37:18;;;;;;;19.27;11.57;;;20.10;50.70;;;;;;5082456;28;20083;-83
2022/03/31 05:40:07;;;;;;;21.92;11.82;;;20.00;50.70;;;;;;5090259;28;20054;-84
2022/03/31 05:42:34;;;;;;;27.90;12.15;;;20.10;50.70;;;;;;5075986;28;20036;-84
2022/03/31 05:45:01;;;;;;;25.38;13.00;;;20.10;50.70;;;;;;5074932;28;20028;-83
2022/03/31 05:47:27;;;;;;;22.98;12.38;;;20.10;50.70;;;;;;5075832;28;20032;-85
2022/03/31 05:49:53;;;;;;;23.08;11.88;;;20.20;50.50;;;;;;5075765;28;20421;-84
2022/03/31 05:52:20;;;;;;;24.10;12.95;;;20.10;50.90;;;;;;5093647;28;20035;-84
2022/03/31 05:54:46;;;;;;;24.85;13.90;;;20.00;50.70;;;;;;5075730;28;20027;-84
2022/03/31 05:57:17;;;;;;;32.17;13.48;;;20.00;50.90;;;;;;5075968;28;20142;-83
2022/03/31 05:59:43;;;;;;;25.30;12.85;;;20.00;51.10;;;;;;5075383;28;20016;-84
2022/03/31 06:02:11;;;;;;;26.05;13.52;;;20.00;51.00;;;;;;5093494;28;20047;-84
2022/03/31 06:04:40;;;;;;;21.55;11.93;;;20.20;50.80;;;;;;5074972;28;20721;-84
2022/03/31 06:07:06;;;;;;;27.95;12.68;;;20.20;50.80;;;;;;5075670;28;20024;-84
2022/03/31 06:09:36;;;;;;;27.08;12.40;;;20.20;50.40;;;;;;5092746;28;20027;-85
2022/03/31 06:12:02;;;;;;;30.73;12.75;;;20.10;50.80;;;;;;5094113;28;20020;-85
2022/03/31 06:14:28;;;;;;;28.52;12.73;;;20.10;50.70;;;;;;5075857;28;20060;-85
2022/03/31 06:16:54;;;;;;;23.30;12.15;;;20.10;50.90;;;;;;5074291;28;20120;-85
2022/03/31 06:19:20;;;;;;;23.95;12.68;;;20.00;51.50;;;;;;5076162;28;20060;-84
2022/03/31 06:21:45;;;;;;;28.45;11.02;;;19.80;51.00;;;;;;5075284;28;20023;-84
2022/03/31 06:24:11;;;;;;;17.70;9.85;;;19.90;50.80;;;;;;5093520;28;20024;-85
2022/03/31 06:26:37;;;;;;;22.83;11.90;;;19.70;51.50;;;;;;5075440;28;20105;-84
2022/03/31 06:29:06;;;;;;;23.10;11.30;;;19.50;51.30;;;;;;5075396;28;20416;-84
2022/03/31 06:31:32;;;;;;;24.67;11.65;;;19.60;51.30;;;;;;5093476;28;20454;-84
2022/03/31 06:33:57;;;;;;;22.42;11.35;;;19.70;51.30;;;;;;5075511;28;20542;-83
2022/03/31 06:36:23;;;;;;;28.08;12.88;;;19.80;51.30;;;;;;5093183;28;20032;-83
2022/03/31 06:39:05;;;;;;;22.88;12.45;;;19.50;51.70;;;;;;5084908;27;1379455;-83
2022/03/31 06:41:31;;;;;;;21.17;12.43;;;18.90;52.80;;;;;;5111386;28;20363;-82
2022/03/31 06:43:57;;;;;;;27.25;14.05;;;18.80;53.40;;;;;;5111029;28;20028;-83
2022/03/31 06:46:23;;;;;;;25.83;12.90;;;18.80;53.70;;;;;;5093315;28;20426;-83
2022/03/31 06:48:48;;;;;;;23.77;12.38;;;18.90;53.60;;;;;;5111267;28;20020;-83
2022/03/31 06:51:16;;;;;;;27.45;13.77;;;19.10;53.70;;;;;;5092725;28;20162;-83
2022/03/31 06:53:43;;;;;;;23.35;13.45;;;19.30;53.60;;;;;;5092752;28;20117;-84
2022/03/31 06:56:13;;;;;;;23.20;13.80;;;19.60;53.10;;;;;;5092807;28;20474;-83
2022/03/31 06:58:39;;;;;;;24.70;13.85;;;19.60;53.20;;;;;;5092741;28;20054;-83
2022/03/31 07:01:05;;;;;;;23.85;13.55;;;19.60;53.80;;;;;;5092897;28;20024;-83
2022/03/31 07:03:31;;;;;;;24.08;14.15;;;19.30;54.20;;;;;;5110881;28;20024;-83
2022/03/31 07:06:16;;;;;;;25.55;15.95;;;19.10;54.80;;;;;;5110612;28;20020;-83
2022/03/31 07:08:41;;;;;;;29.00;17.13;;;18.50;56.30;;;;;;5110812;28;20031;-84
2022/03/31 07:11:09;;;;;;;34.92;17.70;;;18.20;57.00;;;;;;5092522;28;20024;-83
2022/03/31 07:13:35;;;;;;;27.13;17.42;;;18.20;58.00;;;;;;5110823;28;20032;-83
2022/03/31 07:16:00;;;;;;;27.58;17.42;;;18.50;57.60;;;;;;5111078;28;20462;-83
2022/03/31 07:18:26;;;;;;;36.08;19.08;;;18.80;57.00;;;;;;5092111;28;20038;-83
2022/03/31 07:20:52;;;;;;;31.65;19.08;;;18.80;57.40;;;;;;5110711;28;20052;-83
2022/03/31 07:23:19;;;;;;;37.25;21.40;;;18.70;57.90;;;;;;5092940;28;20032;-83
2022/03/31 07:25:45;;;;;;;37.15;21.77;;;18.40;58.80;;;;;;5111167;28;20531;-83
2022/03/31 07:28:19;;;;;;;33.17;19.80;;;18.20;59.60;;;;;;5110514;28;20024;-82
2022/03/31 07:30:48;;;;;;;28.63;19.27;;;18.30;59.20;;;;;;5110272;28;20091;-84
2022/03/31 07:33:14;;;;;;;27.55;19.33;;;18.20;59.70;;;;;;5110241;28;20024;-83
2022/03/31 07:35:42;;;;;;;29.13;19.30;;;18.10;60.30;;;;;;5092232;28;20024;-82
2022/03/31 07:38:08;;;;;;;34.42;21.25;;;18.10;60.40;;;;;;5091969;28;20139;-83
2022/03/31 07:40:36;;;;;;;32.40;21.65;;;18.00;61.00;;;;;;5091732;28;20031;-84
2022/03/31 07:43:04;;;;;;;37.80;21.88;;;17.90;61.40;;;;;;5092030;28;20024;-82
2022/03/31 07:45:31;;;;;;;37.35;22.40;;;17.50;62.10;;;;;;5091897;28;20027;-81
2022/03/31 07:47:56;;;;;;;31.08;20.73;;;17.60;62.90;;;;;;5109500;28;20115;-82
2022/03/31 07:50:22;;;;;;;33.50;21.42;;;17.80;62.00;;;;;;5096789;28;20160;-81
2022/03/31 07:52:49;;;;;;;34.03;21.25;;;17.60;62.50;;;;;;5077956;28;20386;-82
2022/03/31 07:55:16;;;;;;;28.65;20.33;;;17.30;63.30;;;;;;5077954;28;20024;-81
2022/03/31 07:57:43;;;;;;;33.83;21.67;;;17.00;63.70;;;;;;5078618;28;20467;-81
2022/03/31 08:00:11;;;;;;;34.30;22.63;;;16.50;65.90;;;;;;5078581;28;20103;-81
2022/03/31 08:02:39;;;;;;;31.25;21.67;;;16.80;65.60;;;;;;5078527;28;20451;-81
2022/03/31 08:05:05;;;;;;;35.42;21.33;;;16.90;65.00;;;;;;5077957;28;20463;-84
2022/03/31 08:07:31;;;;;;;35.47;22.20;;;17.10;65.00;;;;;;5077746;28;20059;-80
2022/03/31 08:09:56;;;;;;;31.59;22.08;;;17.30;64.10;;;;;;4390334;28;10000922;-81
2022/03/31 08:12:22;;;;;;;29.05;20.65;;;17.60;63.70;;;;;;5092091;28;20089;-83
2022/03/31 08:14:48;;;;;;;40.75;22.52;;;17.60;64.10;;;;;;5076892;28;20024;-81
2022/03/31 08:17:13;;;;;;;38.75;22.38;;;17.60;64.10;;;;;;5077307;28;20119;-81
2022/03/31 08:19:39;;;;;;;33.38;23.00;;;17.30;64.90;;;;;;5077544;28;20032;-80
2022/03/31 08:22:05;;;;;;;32.97;21.73;;;17.50;64.40;;;;;;5077762;28;20028;-81
2022/03/31 08:24:31;;;;;;;32.33;22.75;;;17.50;64.80;;;;;;5095658;28;20035;-81
2022/03/31 08:26:58;;;;;;;33.88;22.52;;;17.10;65.30;;;;;;5095401;28;20402;-81
2022/03/31 08:29:25;;;;;;;33.75;22.10;;;16.50;67.30;;;;;;5077464;28;20544;-81
2022/03/31 08:31:52;;;;;;;41.65;24.95;;;16.60;67.50;;;;;;5077493;28;20047;-81
2022/03/31 08:34:17;;;;;;;36.97;24.02;;;16.80;68.20;;;;;;5077352;28;20035;-81
2022/03/31 08:36:43;;;;;;;30.65;22.30;;;17.10;66.60;;;;;;5095341;28;20028;-81
2022/03/31 08:39:09;;;;;;;35.00;22.55;;;17.30;66.10;;;;;;5076895;28;20048;-86
2022/03/31 08:41:35;;;;;;;34.53;21.55;;;17.30;65.80;;;;;;5095140;28;20036;-81
2022/03/31 08:44:01;;;;;;;29.98;21.70;;;17.00;66.20;;;;;;5077061;28;20287;-81
2022/03/31 08:46:32;;;;;;;28.77;22.10;;;16.80;67.30;;;;;;5077168;28;20489;-81
2022/03/31 08:48:58;;;;;;;38.30;21.85;;;16.90;66.50;;;;;;5076837;28;20020;-81
2022/03/31 08:51:24;;;;;;;37.25;21.83;;;16.70;67.40;;;;;;5077151;28;20390;-80
2022/03/31 08:53:50;;;;;;;26.70;20.85;;;16.50;68.40;;;;;;5077067;28;20390;-81
2022/03/31 08:56:16;;;;;;;36.15;23.00;;;16.50;68.60;;;;;;5094811;28;20466;-81
2022/03/31 08:58:46;;;;;;;30.42;19.83;;;16.90;68.00;;;;;;5076707;28;20470;-81
2022/03/31 09:01:15;;;;;;;34.67;23.30;;;17.00;66.70;;;;;;5093889;28;20073;-81
2022/03/31 09:03:42;;;;;;;31.40;20.67;;;17.00;67.10;;;;;;5094666;28;20055;-81
2022/03/31 09:06:09;;;;;;;30.60;20.33;;;17.10;66.60;;;;;;5076623;28;20024;-80
2022/03/31 09:08:35;;;;;;;27.73;19.88;;;17.20;66.00;;;;;;5094955;28;20193;-80
2022/03/31 09:11:03;;;;;;;41.30;22.08;;;16.70;66.50;;;;;;5094482;28;20035;-80
2022/03/31 09:13:38;;;;;;;34.05;21.63;;;16.40;68.70;;;;;;5076749;28;20573;-81
2022/03/31 09:16:09;;;;;;;33.55;20.45;;;16.40;69.10;;;;;;5076368;28;20052;-81
2022/03/31 09:18:36;;;;;;;31.58;21.15;;;16.50;67.90;;;;;;5076282;28;20035;-81
2022/03/31 09:21:05;;;;;;;30.10;21.60;;;16.40;68.40;;;;;;5094604;28;20034;-82
2022/03/31 09:23:43;;;;;;;28.88;19.98;;;16.60;69.00;;;;;;5094533;28;20024;-85
2022/03/31 09:26:13;;;;;;;32.10;20.02;;;16.80;66.90;;;;;;5094526;28;20058;-81
2022/03/31 09:28:40;;;;;;;33.97;21.95;;;16.60;67.20;;;;;;5076359;28;20382;-82
2022/03/31 09:31:10;;;;;;;34.88;23.48;;;16.90;67.50;;;;;;5094257;28;20043;-81
2022/03/31 09:33:44;;;;;;;38.72;22.77;;;17.40;66.40;;;;;;5076164;28;20039;-81
2022/03/31 09:36:15;;;;;;;33.63;25.17;;;17.40;65.60;;;;;;5076208;28;20051;-81
2022/03/31 09:38:51;;;;;;;34.88;22.02;;;17.20;66.70;;;;;;5093922;28;20137;-81
2022/03/31 09:41:25;;;;;;;35.58;24.05;;;17.10;67.80;;;;;;5075883;28;20173;-81
2022/03/31 09:43:53;;;;;;;35.50;24.30;;;16.60;68.80;;;;;;5094125;28;20030;-81
2022/03/31 09:46:21;;;;;;;32.58;22.52;;;16.60;68.30;;;;;;5094116;28;20020;-82
2022/03/31 09:48:48;;;;;;;35.97;23.75;;;17.30;67.70;;;;;;5075971;28;20031;-81
2022/03/31 09:51:14;;;;;;;38.83;28.02;;;17.60;66.50;;;;;;5093901;28;20016;-82
2022/03/31 09:53:40;;;;;;;36.38;26.25;;;17.40;66.90;;;;;;5093685;28;20016;-81
2022/03/31 09:56:07;;;;;;;39.30;25.63;;;17.40;67.30;;;;;;5076178;28;20031;-81
2022/03/31 09:58:38;;;;;;;38.35;27.40;;;16.90;68.50;;;;;;5075232;28;20040;-82
2022/03/31 10:01:04;;;;;;;36.05;24.58;;;16.90;69.10;;;;;;5075618;28;20050;-82
2022/03/31 10:03:30;;;;;;;32.55;23.50;;;17.30;68.40;;;;;;5076015;28;20474;-82
2022/03/31 10:05:57;;;;;;;31.67;23.30;;;17.90;66.50;;;;;;5075481;28;20024;-82
2022/03/31 10:08:24;;;;;;;34.17;22.20;;;18.50;65.40;;;;;;5075499;28;20478;-82
2022/03/31 10:10:51;;;;;;;30.08;22.50;;;18.80;64.20;;;;;;5093795;28;20051;-81
2022/03/31 10:13:25;;;;;;;31.77;22.35;;;18.90;64.10;;;;;;5075243;28;20082;-81
2022/03/31 10:16:05;;;;;;;32.78;22.75;;;18.60;64.30;;;;;;5075594;28;20415;-82
2022/03/31 10:18:31;;;;;;;32.60;24.02;;;18.00;65.00;;;;;;5075449;28;20063;-82
2022/03/31 10:21:00;;;;;;;31.77;22.35;;;17.50;66.30;;;;;;5075677;28;20123;-85
2022/03/31 10:26:25;;;;;;;36.20;23.58;;;16.50;69.70;;;;;;5093541;28;20030;-85
2022/03/31 10:28:59;;;;;;;36.90;24.25;;;16.20;70.80;;;;;;5075836;28;20028;-82
2022/03/31 10:31:40;;;;;;;37.58;25.33;;;15.90;71.50;;;;;;5075533;28;20028;-82
2022/03/31 10:34:08;;;;;;;48.38;29.35;;;15.80;72.30;;;;;;5075209;28;20036;-83
2022/03/31 10:36:39;;;;;;;38.60;26.42;;;15.60;73.60;;;;;;5093037;28;20057;-83
2022/03/31 10:39:14;;;;;;;45.38;29.85;;;15.40;73.70;;;;;;5075475;28;20051;-83
2022/03/31 10:41:42;;;;;;;40.42;29.95;;;15.50;75.10;;;;;;5074996;28;20035;-83
2022/03/31 10:44:11;;;;;;;58.97;39.72;;;16.00;72.50;;;;;;5093536;28;20051;-82
2022/03/31 10:46:37;;;;;;;48.00;32.92;;;16.60;71.60;;;;;;5075346;28;20063;-84
2022/03/31 10:49:07;;;;;;;42.25;30.58;;;16.80;70.10;;;;;;5075590;28;20119;-84
2022/03/31 10:51:37;;;;;;;46.10;28.88;;;17.30;68.00;;;;;;5075493;28;20012;-84
2022/03/31 10:54:05;;;;;;;33.47;23.33;;;17.80;67.00;;;;;;5075557;28;20027;-83
2022/03/31 10:56:32;;;;;;;36.50;25.17;;;18.00;66.50;;;;;;5093096;28;20028;-83
2022/03/31 10:59:00;;;;;;;37.45;25.67;;;18.30;66.30;;;;;;5076113;28;20109;-84
2022/03/31 11:01:32;;;;;;;41.15;28.52;;;18.50;65.20;;;;;;5093390;28;20053;-84
2022/03/31 11:04:08;;;;;;;39.75;29.67;;;17.90;66.40;;;;;;5075095;28;20474;-84
2022/03/31 11:06:48;;;;;;;45.88;29.45;;;17.70;67.90;;;;;;5075264;28;20058;-84
2022/03/31 11:09:27;;;;;;;45.17;32.15;;;17.90;66.90;;;;;;5075188;28;20067;-84
2022/03/31 11:11:55;;;;;;;45.83;29.40;;;18.10;66.30;;;;;;5093371;28;20115;-84
2022/03/31 11:14:21;;;;;;;36.47;25.83;;;18.20;66.50;;;;;;5075417;28;20024;-83
2022/03/31 11:16:47;;;;;;;35.20;25.85;;;18.40;66.30;;;;;;5093096;28;20082;-84
2022/03/31 11:22:01;;;;;;;39.47;28.45;;;18.70;65.50;;;;;;5010998;28;20504;-84
2022/03/31 11:24:27;;;;;;;47.53;33.20;;;18.70;65.40;;;;;;5012665;28;20041;-84
2022/03/31 11:30:22;;;;;;;41.25;28.02;;;18.80;64.80;;;;;;4995547;28;20035;-84
2022/03/31 11:33:43;;;;;;;41.10;29.40;;;18.80;65.40;;;;;;4979121;28;20041;-84
2022/03/31 11:46:17;;;;;;;37.95;26.98;;;18.80;65.50;;;;;;4937359;29;20046;-84
2022/03/31 11:52:13;;;;;;;41.80;29.17;;;19.10;64.60;;;;;;4936183;29;20040;-84
2022/03/31 11:54:41;;;;;;;47.65;33.90;;;18.30;66.60;;;;;;4921281;29;20036;-83
2022/03/31 12:01:02;;;;;;;40.10;29.40;;;17.70;68.70;;;;;;5014172;28;20110;-84
2022/03/31 12:03:36;;;;;;;44.15;32.55;;;18.00;68.00;;;;;;4997913;28;20041;-83
2022/03/31 12:06:04;;;;;;;42.45;30.45;;;18.20;67.30;;;;;;4997123;28;20376;-84
2022/03/31 12:08:41;;;;;;;42.47;29.42;;;18.50;66.10;;;;;;4997857;28;20029;-85
2022/03/31 12:11:08;;;;;;;47.83;32.53;;;18.30;66.30;;;;;;4997607;28;20026;-84
2022/03/31 12:17:02;;;;;;;44.35;31.73;;;18.40;66.90;;;;;;4980153;28;20041;-85
2022/03/31 12:22:51;;;;;;;60.40;37.38;;;18.60;66.10;;;;;;4994951;28;20083;-84
2022/03/31 12:25:57;;;;;;;51.38;37.42;;;18.40;66.90;;;;;;4978184;28;20023;-83
2022/03/31 12:28:24;;;;;;;39.17;29.70;;;18.30;66.90;;;;;;4978115;28;20396;-86
2022/03/31 12:31:40;;;;;;;44.83;32.83;;;17.70;68.50;;;;;;4994681;28;20089;-87
2022/03/31 12:35:13;;;;;;;42.83;30.58;;;17.80;69.10;;;;;;4994245;28;20049;-84
2022/03/31 12:38:36;;;;;;;43.58;27.85;;;18.10;67.20;;;;;;4977131;28;20042;-83
2022/03/31 12:41:13;;;;;;;36.70;28.42;;;18.50;66.10;;;;;;4977803;28;20053;-85
2022/03/31 12:43:39;;;;;;;38.58;28.38;;;18.50;66.50;;;;;;4993973;28;20040;-89
2022/03/31 12:46:54;;;;;;;;;;;;;;;;;;;;;
2022/03/31 12:49:22;;;;;;;39.72;28.15;;;18.20;66.00;;;;;;4990720;28;20094;-83
2022/03/31 12:54:59;;;;;;;43.20;29.83;;;18.20;67.20;;;;;;5013418;28;20032;-82
2022/03/31 12:57:28;;;;;;;44.85;30.40;;;18.40;66.50;;;;;;4996431;28;20030;-82
2022/03/31 13:06:01;;;;;;;43.22;27.80;;;18.50;65.70;;;;;;5173486;22;20124;-84
2022/03/31 13:08:27;;;;;;;40.53;27.98;;;18.50;65.70;;;;;;5055165;28;20375;-84
2022/03/31 13:11:03;;;;;;;37.22;25.63;;;18.60;66.00;;;;;;5053629;28;20052;-84
2022/03/31 13:20:33;;;;;;;38.17;26.92;;;18.80;65.20;;;;;;4993058;28;20061;-84
2022/03/31 13:22:59;;;;;;;34.95;24.77;;;18.80;65.80;;;;;;4977095;28;20038;-88
2022/03/31 13:25:24;;;;;;;39.38;25.38;;;18.80;64.50;;;;;;4977142;28;20473;-89
2022/03/31 13:27:50;;;;;;;33.78;23.35;;;18.90;65.10;;;;;;4993430;28;20066;-87
2022/03/31 13:30:25;;;;;;;31.98;22.65;;;18.80;65.10;;;;;;4993151;28;20408;-81
2022/03/31 13:32:51;;;;;;;34.30;22.48;;;18.60;65.20;;;;;;4993001;28;20069;-86